createdAt,value
2024-01-05T00:00:09.704Z,7.43
2024-01-05T00:03:12.801Z,3.20
2024-01-05T00:06:15.761Z,4.10
2024-01-05T00:09:19.180Z,5.20
2024-01-05T00:12:22.483Z,8.57
2024-01-05T00:15:26.955Z,4.33
2024-01-05T00:18:29.872Z,8.23
2024-01-05T00:21:32.733Z,2.80
2024-01-05T00:24:38.233Z,4.30
2024-01-05T00:27:41.107Z,4.70
2024-01-05T00:30:45.617Z,4.13
2024-01-05T00:33:48.867Z,6.47
2024-01-05T00:36:51.923Z,4.70
2024-01-05T00:39:54.997Z,5.20
2024-01-05T00:42:57.857Z,5.03
2024-01-05T00:46:02.083Z,7.13
2024-01-05T00:49:04.837Z,6.37
2024-01-05T00:52:07.882Z,4.27
2024-01-05T00:55:10.881Z,6.10
2024-01-05T00:58:13.520Z,7.20
2024-01-05T01:01:17.751Z,5.47
2024-01-05T01:04:20.650Z,6.10
2024-01-05T01:07:23.462Z,2.97
2024-01-05T01:10:26.074Z,7.63
2024-01-05T01:13:28.880Z,5.33
2024-01-05T01:16:33.689Z,8.80
2024-01-05T01:19:36.430Z,4.17
2024-01-05T01:22:39.136Z,3.13
2024-01-05T01:25:42.085Z,1.87
2024-01-05T01:28:44.746Z,3.13
2024-01-05T01:31:48.780Z,6.70
2024-01-05T01:34:51.478Z,3.43
2024-01-05T01:37:54.169Z,3.10
2024-01-05T01:40:57.963Z,3.43
2024-01-05T01:44:01.588Z,7.07
2024-01-05T01:47:06.410Z,3.43
2024-01-05T01:50:10.035Z,1.67
2024-01-05T01:53:14.733Z,5.07
2024-01-05T01:56:17.598Z,1.97
2024-01-05T01:59:20.354Z,2.23
2024-01-05T02:02:25.162Z,4.53
2024-01-05T02:05:28.015Z,6.33
2024-01-05T02:08:30.877Z,6.63
2024-01-05T02:11:33.556Z,4.83
2024-01-05T02:14:36.370Z,5.37
2024-01-05T02:17:41.813Z,2.83
2024-01-05T02:20:47.872Z,1.97
2024-01-05T02:23:52.405Z,7.17
2024-01-05T02:26:55.287Z,7.63
2024-01-05T02:29:58.234Z,3.00
2024-01-05T02:33:01.332Z,3.93
2024-01-05T02:36:07.750Z,4.03
2024-01-05T02:39:21.592Z,5.23
2024-01-05T02:42:32.223Z,2.77
2024-01-05T02:45:45.221Z,3.37
2024-01-05T02:49:04.931Z,2.20
2024-01-05T02:52:21.342Z,3.43
2024-01-05T02:55:38.208Z,5.00
2024-01-05T02:58:43.278Z,4.37
2024-01-05T03:02:15.003Z,2.67
2024-01-05T03:05:26.976Z,4.10
2024-01-05T03:08:35.325Z,4.10
2024-01-05T03:11:44.909Z,2.40
2024-01-05T03:14:53.148Z,4.07
2024-01-05T03:18:01.898Z,4.83
2024-01-05T03:21:09.081Z,3.40
2024-01-05T03:24:16.226Z,1.43
2024-01-05T03:27:25.655Z,4.67
2024-01-05T03:30:34.923Z,1.93
2024-01-05T03:33:44.487Z,1.47
2024-01-05T03:37:07.175Z,1.73
2024-01-05T03:40:25.371Z,3.13
2024-01-05T03:43:38.101Z,4.67
2024-01-05T03:46:51.494Z,2.23
2024-01-05T03:50:20.583Z,2.93
2024-01-05T03:53:35.276Z,3.03
2024-01-05T03:57:00.381Z,1.50
2024-01-05T04:00:38.252Z,5.80
2024-01-05T04:03:52.905Z,1.97
2024-01-05T04:07:19.316Z,2.90
2024-01-05T04:10:25.427Z,3.20
2024-01-05T04:13:36.150Z,2.37
2024-01-05T04:16:55.701Z,1.93
2024-01-05T04:20:08.859Z,2.80
2024-01-05T04:23:37.763Z,2.40
2024-01-05T04:26:45.884Z,3.40
2024-01-05T04:33:16.439Z,2.10
2024-01-05T04:36:28.651Z,5.10
2024-01-05T04:39:49.706Z,0.50
2024-01-05T04:43:05.473Z,0.97
2024-01-05T04:46:17.096Z,2.40
2024-01-05T04:49:30.522Z,1.67
2024-01-05T04:56:58.437Z,5.27
2024-01-05T05:00:31.028Z,3.70
2024-01-05T05:03:36.704Z,1.90
2024-01-05T05:07:32.054Z,1.93
2024-01-05T05:11:23.034Z,2.87
2024-01-05T05:18:30.210Z,2.03
2024-01-05T05:21:37.622Z,1.77
2024-01-05T05:24:58.284Z,1.20
2024-01-05T05:28:19.780Z,0.73
2024-01-05T05:31:37.368Z,2.27
2024-01-05T05:34:51.101Z,1.80
2024-01-05T05:38:16.730Z,3.77
2024-01-05T05:41:34.835Z,3.20
2024-01-05T05:44:50.438Z,4.17
2024-01-05T05:48:02.328Z,1.40
2024-01-05T05:51:25.095Z,1.80
2024-01-05T05:54:34.534Z,2.07
2024-01-05T06:01:23.680Z,1.00
2024-01-05T06:04:35.852Z,3.07
2024-01-05T06:07:51.933Z,1.60
2024-01-05T06:11:24.231Z,1.47
2024-01-05T06:14:42.296Z,3.07
2024-01-05T06:18:06.504Z,4.43
2024-01-05T06:21:19.404Z,1.67
2024-01-05T06:24:31.023Z,3.23
2024-01-05T06:27:39.748Z,2.37
2024-01-05T06:30:48.217Z,1.90
2024-01-05T06:37:22.951Z,3.50
2024-01-05T06:40:35.761Z,1.47
2024-01-05T06:43:45.874Z,2.93
2024-01-05T06:47:03.614Z,2.53
2024-01-05T06:50:15.905Z,2.27
2024-01-05T06:53:20.594Z,2.90
2024-01-05T06:56:41.096Z,2.10
2024-01-05T07:00:06.988Z,1.37
2024-01-05T07:03:28.863Z,2.13
2024-01-05T07:06:40.112Z,1.03
2024-01-05T07:09:58.126Z,5.70
2024-01-05T07:13:08.625Z,4.00
2024-01-05T07:16:21.974Z,2.33
2024-01-05T07:19:29.014Z,1.30
2024-01-05T07:22:36.911Z,1.70
2024-01-05T07:25:45.901Z,5.17
2024-01-05T07:29:10.102Z,3.33
2024-01-05T07:32:44.946Z,1.90
2024-01-05T07:36:11.070Z,1.90
2024-01-05T08:01:28.946Z,4.40
2024-01-05T08:22:17.551Z,1.97
2024-01-05T08:25:24.154Z,2.70
2024-01-05T08:28:27.989Z,3.37
2024-01-05T08:31:31.615Z,3.60
2024-01-05T08:34:35.205Z,3.60
2024-01-05T08:37:39.478Z,4.30
2024-01-05T08:40:45.823Z,3.07
2024-01-05T08:43:48.762Z,2.43
2024-01-05T08:46:51.759Z,2.33
2024-01-05T08:49:55.282Z,2.97
2024-01-05T08:52:58.383Z,5.33
2024-01-05T08:56:02.663Z,3.07
2024-01-05T08:59:06.928Z,1.53
2024-01-05T09:02:10.378Z,2.03
2024-01-05T09:05:14.024Z,6.33
2024-01-05T09:08:17.005Z,2.40
2024-01-05T09:11:21.507Z,6.17
2024-01-05T09:14:24.661Z,3.10
2024-01-05T09:17:27.859Z,2.53
2024-01-05T09:20:30.978Z,2.47
2024-01-05T09:23:34.013Z,1.73
2024-01-05T09:26:38.260Z,3.33
2024-01-05T09:29:41.556Z,3.27
2024-01-05T09:32:44.348Z,2.20
2024-01-05T09:35:47.200Z,4.97
2024-01-05T09:38:50.219Z,2.43
2024-01-05T09:41:54.367Z,1.07
2024-01-05T09:44:57.748Z,4.07
2024-01-05T09:48:03.547Z,2.77
2024-01-05T09:51:08.878Z,3.03
2024-01-05T09:54:12.337Z,2.43
2024-01-05T09:57:19.094Z,2.63
2024-01-05T10:00:24.562Z,2.20
2024-01-05T10:03:28.491Z,1.30
2024-01-05T10:06:32.545Z,1.23
2024-01-05T10:09:50.912Z,2.27
2024-01-05T10:12:55.233Z,2.30
2024-01-05T10:16:01.023Z,2.33
2024-01-05T10:19:12.942Z,2.33
2024-01-05T10:22:16.891Z,3.60
2024-01-05T10:25:23.225Z,2.27
2024-01-05T10:28:31.739Z,3.10
2024-01-05T10:31:34.659Z,1.87
2024-01-05T10:34:37.816Z,1.50
2024-01-05T10:37:40.646Z,3.30
2024-01-05T10:40:43.375Z,1.40
2024-01-05T10:43:48.997Z,1.30
2024-01-05T10:46:53.277Z,2.67
2024-01-05T10:49:58.705Z,3.40
2024-01-05T10:53:02.755Z,2.13
2024-01-05T10:56:09.000Z,2.47
2024-01-05T10:59:13.106Z,1.53
2024-01-05T11:02:23.313Z,3.33
2024-01-05T11:05:27.882Z,1.97
2024-01-05T11:08:44.092Z,4.43
2024-01-05T11:12:01.710Z,4.37
2024-01-05T11:15:24.663Z,4.37
2024-01-05T11:18:57.095Z,4.70
2024-01-05T11:22:04.728Z,1.80
2024-01-05T11:25:08.088Z,3.83
2024-01-05T11:28:34.160Z,5.20
2024-01-05T11:31:55.078Z,2.03
2024-01-05T11:34:58.074Z,1.37
2024-01-05T11:38:00.884Z,3.53
2024-01-05T11:41:17.466Z,4.57
2024-01-05T11:44:33.781Z,1.70
2024-01-05T11:47:42.906Z,5.67
2024-01-05T11:50:45.895Z,4.70
2024-01-05T11:53:49.652Z,3.57
2024-01-05T11:56:56.148Z,2.83
2024-01-05T11:59:58.937Z,1.93
2024-01-05T12:03:04.085Z,3.30
2024-01-05T12:06:11.005Z,4.03
2024-01-05T12:09:14.241Z,3.77
2024-01-05T12:12:18.348Z,5.97
2024-01-05T12:15:21.749Z,1.87
2024-01-05T12:18:34.590Z,1.53
2024-01-05T12:21:41.230Z,2.95
2024-01-05T12:24:46.921Z,2.47
2024-01-05T12:27:50.114Z,5.80
2024-01-05T12:30:53.289Z,2.53
2024-01-05T12:33:58.560Z,1.70
2024-01-05T12:37:08.596Z,2.00
2024-01-05T12:40:12.774Z,4.90
2024-01-05T12:43:17.561Z,1.80
2024-01-05T12:46:21.411Z,2.00
2024-01-05T12:49:27.114Z,2.53
2024-01-05T12:52:37.415Z,4.37
2024-01-05T12:55:40.298Z,5.97
2024-01-05T12:58:44.174Z,1.80
2024-01-05T13:01:46.929Z,2.63
2024-01-05T13:04:51.095Z,1.87
2024-01-05T13:07:54.656Z,4.97
2024-01-05T13:10:57.392Z,2.57
2024-01-05T13:14:00.204Z,3.27
2024-01-05T13:17:03.344Z,2.00
2024-01-05T13:20:10.104Z,1.63
2024-01-05T13:23:13.686Z,2.60
2024-01-05T13:26:17.482Z,4.37
2024-01-05T13:29:20.206Z,3.00
2024-01-05T13:32:23.152Z,3.70
2024-01-05T13:35:27.330Z,1.43
2024-01-05T13:38:30.057Z,2.60
2024-01-05T13:41:32.780Z,4.13
2024-01-05T13:44:36.380Z,2.30
2024-01-05T13:47:39.394Z,4.60
2024-01-05T13:50:43.619Z,1.77
2024-01-05T13:53:46.437Z,4.77
2024-01-05T13:56:49.310Z,2.77
2024-01-05T13:59:52.086Z,3.07
2024-01-05T14:02:54.950Z,4.53
2024-01-05T14:06:04.999Z,2.27
2024-01-05T14:09:07.926Z,2.23
2024-01-05T14:12:11.079Z,5.07
2024-01-05T14:15:15.456Z,3.57
2024-01-05T14:18:18.426Z,4.13
2024-01-05T14:21:27.542Z,2.27
2024-01-05T14:24:30.508Z,4.23
2024-01-05T14:27:33.270Z,2.47
2024-01-05T14:30:36.288Z,3.00
2024-01-05T14:33:39.450Z,2.33
2024-01-05T14:36:43.832Z,2.07
2024-01-05T14:39:46.690Z,2.20
2024-01-05T14:42:49.490Z,2.43
2024-01-05T14:45:52.345Z,2.73
2024-01-05T14:48:55.245Z,3.03
2024-01-05T14:52:01.248Z,2.87
2024-01-05T14:55:04.657Z,5.27
2024-01-05T14:58:08.091Z,3.23
2024-01-05T15:01:11.239Z,2.80
2024-01-05T15:04:14.460Z,3.13
2024-01-05T15:07:19.037Z,4.43
2024-01-05T15:10:21.827Z,4.17
2024-01-05T15:13:24.597Z,3.97
2024-01-05T15:16:28.058Z,2.17
2024-01-05T15:19:31.077Z,2.77
2024-01-05T15:22:35.250Z,7.13
2024-01-05T15:25:38.082Z,6.17
2024-01-05T15:28:41.717Z,3.77
2024-01-05T15:31:44.586Z,2.53
2024-01-05T15:34:47.568Z,3.10
2024-01-05T15:37:51.667Z,2.70
2024-01-05T15:40:54.397Z,5.83
2024-01-05T15:43:57.661Z,5.33
2024-01-05T15:47:00.714Z,3.70
2024-01-05T15:50:04.349Z,2.80
2024-01-05T15:53:08.526Z,2.43
2024-01-05T15:56:11.645Z,2.47
2024-01-05T15:59:14.723Z,2.80
2024-01-05T16:02:17.526Z,2.03
2024-01-05T16:05:20.688Z,3.03
2024-01-05T16:08:25.311Z,3.37
2024-01-05T16:11:31.742Z,3.93
2024-01-05T16:14:34.764Z,6.83
2024-01-05T16:17:37.806Z,2.27
2024-01-05T16:20:42.391Z,5.30
2024-01-05T16:23:46.717Z,3.57
2024-01-05T16:26:50.419Z,2.83
2024-01-05T16:29:53.244Z,2.40
2024-01-05T16:32:56.179Z,2.87
2024-01-05T16:35:59.104Z,3.40
2024-01-05T16:39:04.053Z,6.60
2024-01-05T16:42:07.112Z,3.37
2024-01-05T16:45:13.055Z,1.80
2024-01-05T16:48:16.154Z,4.93
2024-01-05T16:51:19.027Z,2.33
2024-01-05T16:54:23.346Z,3.43
2024-01-05T16:57:26.290Z,3.83
2024-01-05T17:00:29.618Z,3.03
2024-01-05T17:03:32.984Z,4.40
2024-01-05T17:06:37.111Z,5.23
2024-01-05T17:09:42.304Z,5.20
2024-01-05T17:12:45.310Z,2.20
2024-01-05T17:15:48.169Z,2.50
2024-01-05T17:18:53.085Z,5.53
2024-01-05T17:21:56.205Z,4.33
2024-01-05T17:25:00.795Z,3.97
2024-01-05T17:28:05.060Z,6.47
2024-01-05T17:31:08.098Z,4.97
2024-01-05T17:34:11.945Z,4.67
2024-01-05T17:37:17.365Z,4.50
2024-01-05T17:40:22.938Z,6.57
2024-01-05T17:43:25.747Z,4.60
2024-01-05T17:46:28.744Z,4.67
2024-01-05T17:49:31.699Z,3.83
2024-01-05T17:52:34.644Z,6.03
2024-01-05T17:55:38.805Z,3.87
2024-01-05T17:58:41.692Z,3.23
2024-01-05T18:01:45.129Z,4.63
2024-01-05T18:04:48.061Z,6.07
2024-01-05T18:07:54.194Z,6.90
2024-01-05T18:10:58.705Z,3.93
2024-01-05T18:14:01.917Z,4.83
2024-01-05T18:17:05.168Z,3.60
2024-01-05T18:20:10.128Z,3.93
2024-01-05T18:23:16.748Z,5.83
2024-01-05T18:26:23.122Z,4.63
2024-01-05T18:29:29.407Z,4.10
2024-01-05T18:32:33.113Z,3.10
2024-01-05T18:35:35.982Z,6.03
2024-01-05T18:38:39.160Z,4.83
2024-01-05T18:41:43.353Z,4.63
2024-01-05T18:44:46.267Z,4.47
2024-01-05T18:47:49.188Z,4.50
2024-01-05T18:50:52.342Z,4.23
2024-01-05T18:53:55.177Z,7.10
2024-01-05T18:57:00.805Z,2.40
2024-01-05T19:00:03.684Z,3.73
2024-01-05T19:03:06.857Z,6.90
2024-01-05T19:06:09.816Z,7.63
2024-01-05T19:09:12.920Z,5.03
2024-01-05T19:12:17.308Z,4.07
2024-01-05T19:15:20.125Z,4.80
2024-01-05T19:18:23.145Z,4.60
2024-01-05T19:21:26.132Z,2.93
2024-01-05T19:24:29.361Z,4.63
2024-01-05T19:27:33.807Z,5.27
2024-01-05T19:30:37.131Z,5.10
2024-01-05T19:33:40.217Z,15.50
2024-01-05T19:36:46.317Z,12.23
2024-01-05T19:39:49.701Z,9.30
2024-01-05T19:42:54.159Z,8.73
2024-01-05T19:45:57.095Z,5.40
2024-01-05T19:49:00.999Z,7.03
2024-01-05T19:52:04.817Z,7.70
2024-01-05T19:55:08.684Z,10.67
2024-01-05T19:58:13.509Z,9.70
2024-01-05T20:01:17.803Z,10.03
2024-01-05T20:04:20.810Z,9.73
2024-01-05T20:07:25.676Z,12.77
2024-01-05T20:10:29.708Z,12.27
2024-01-05T20:13:33.934Z,9.10
2024-01-05T20:16:36.934Z,11.80
2024-01-05T20:19:40.011Z,12.40
2024-01-05T20:22:42.999Z,10.23
2024-01-05T20:25:45.737Z,9.70
2024-01-05T20:28:51.027Z,11.23
2024-01-05T20:31:55.355Z,8.43
2024-01-05T20:34:58.640Z,8.37
2024-01-05T20:38:01.423Z,11.83
2024-01-05T20:41:05.031Z,8.43
2024-01-05T20:44:12.746Z,8.20
2024-01-05T20:47:17.543Z,8.43
2024-01-05T20:50:20.159Z,6.90
2024-01-05T20:53:23.173Z,6.87
2024-01-05T20:56:25.796Z,5.30
2024-01-05T20:59:29.799Z,6.40
2024-01-05T21:02:32.583Z,9.60
2024-01-05T21:05:36.129Z,8.43
2024-01-05T21:08:38.810Z,6.17
2024-01-05T21:11:41.415Z,4.33
2024-01-05T21:14:45.388Z,3.87
2024-01-05T21:17:49.520Z,4.97
2024-01-05T21:20:52.201Z,3.43
2024-01-05T21:23:54.952Z,5.90
2024-01-05T21:26:57.613Z,4.33
2024-01-05T21:30:01.644Z,8.23
2024-01-05T21:33:05.523Z,5.97
2024-01-05T21:36:12.197Z,5.57
2024-01-05T21:39:17.637Z,5.23
2024-01-05T21:42:20.698Z,4.93
2024-01-05T21:45:24.905Z,4.90
2024-01-05T21:48:27.776Z,7.33
2024-01-05T21:51:30.641Z,7.20
2024-01-05T21:54:33.484Z,7.20
2024-01-05T21:57:36.507Z,7.87
2024-01-05T22:00:40.674Z,5.63
2024-01-05T22:03:43.494Z,5.10
2024-01-05T22:06:46.498Z,3.37
2024-01-05T22:09:49.386Z,3.67
2024-01-05T22:12:54.573Z,2.53
2024-01-05T22:15:58.914Z,3.77
2024-01-05T22:19:01.968Z,6.67
2024-01-05T22:22:04.891Z,3.07
2024-01-05T22:25:08.596Z,5.10
2024-01-05T22:28:11.278Z,2.50
2024-01-05T22:31:15.612Z,3.27
2024-01-05T22:34:18.365Z,3.53
2024-01-05T22:37:21.551Z,3.57
2024-01-05T22:40:26.621Z,3.90
2024-01-05T22:43:29.337Z,3.43
2024-01-05T22:46:33.296Z,4.13
2024-01-05T22:49:40.104Z,2.40
2024-01-05T22:52:42.807Z,2.77
2024-01-05T22:55:45.497Z,3.60
2024-01-05T22:58:48.378Z,2.67
2024-01-05T23:01:55.824Z,4.13
2024-01-05T23:04:58.993Z,3.53
2024-01-05T23:08:01.807Z,3.17
2024-01-05T23:11:06.211Z,4.33
2024-01-05T23:14:08.887Z,2.53
2024-01-05T23:17:12.931Z,2.40
2024-01-05T23:20:16.333Z,2.20
2024-01-05T23:23:19.139Z,3.10
2024-01-05T23:26:21.782Z,2.83
2024-01-05T23:29:24.981Z,1.63
2024-01-05T23:32:28.995Z,2.30
2024-01-05T23:35:31.703Z,3.83
2024-01-05T23:38:34.374Z,2.63
2024-01-05T23:41:37.846Z,3.03
2024-01-05T23:44:40.541Z,6.10
2024-01-05T23:47:44.533Z,1.70
2024-01-05T23:50:47.336Z,2.83
2024-01-05T23:53:49.943Z,1.83
2024-01-05T23:56:52.552Z,6.23
2024-01-05T23:59:55.250Z,2.93
